Time;durP1;ratioP1;P1;durP2;ratioP2;P2;SDS_P1;SDS_P2;PMS_P1;PMS_P2;Temp;Humidity;BMP_temperature;BMP_pressure;BME280_temperature;BME280_humidity;BME280_pressure;Samples;Min_cycle;Max_cycle;Signal;HPM_P1;HPM_P2
2021/04/29 00:01:17;;;;;;;6.53;3.97;;;;;;;9.60;78.75;95237.72;1754459;82;21165;-63
2021/04/29 00:03:43;;;;;;;7.23;4.27;;;;;;;9.57;79.60;95240.84;1753742;82;21165;-63
2021/04/29 00:06:11;;;;;;;3.47;3.10;;;;;;;9.53;78.97;95240.05;1754392;82;21136;-62
2021/04/29 00:08:39;;;;;;;3.43;2.57;;;;;;;9.54;78.89;95237.83;1754437;82;21141;-62
2021/04/29 00:11:09;;;;;;;5.87;3.63;;;;;;;9.55;78.72;95236.95;1754176;82;21562;-63
2021/04/29 00:13:38;;;;;;;4.27;2.97;;;;;;;9.50;78.37;95243.63;1754484;81;21286;-63
2021/04/29 00:16:06;;;;;;;4.83;3.50;;;;;;;9.44;78.25;95245.04;1754565;82;21279;-62
2021/04/29 00:18:35;;;;;;;5.93;3.43;;;;;;;9.43;78.45;95242.00;1754166;82;21137;-63
2021/04/29 00:21:03;;;;;;;6.43;3.97;;;;;;;9.39;79.36;95245.58;1754186;82;21136;-63
2021/04/29 00:23:31;;;;;;;5.17;3.27;;;;;;;9.42;78.93;95246.83;1754281;82;21128;-63
2021/04/29 00:25:59;;;;;;;6.53;3.13;;;;;;;9.44;79.71;95238.91;1754275;82;21153;-62
2021/04/29 00:28:27;;;;;;;3.90;3.50;;;;;;;9.39;79.41;95246.03;1754227;82;21611;-63
2021/04/29 00:30:54;;;;;;;4.13;3.30;;;;;;;9.38;79.26;95248.27;1754161;82;21543;-63
2021/04/29 00:33:22;;;;;;;4.07;3.03;;;;;;;9.29;79.22;95244.89;1727112;82;21578;-63
2021/04/29 00:35:50;;;;;;;3.97;3.03;;;;;;;9.21;79.34;95248.58;1754488;82;21267;-62
2021/04/29 00:38:18;;;;;;;4.60;3.87;;;;;;;9.19;79.22;95246.41;1754235;82;21686;-63
2021/04/29 00:40:46;;;;;;;4.33;3.50;;;;;;;9.21;78.97;95239.36;1754120;82;21149;-63
2021/04/29 00:43:14;;;;;;;4.50;3.10;;;;;;;9.17;79.93;95235.94;1754230;81;21148;-63
2021/04/29 00:45:41;;;;;;;4.37;3.47;;;;;;;9.05;79.42;95235.70;1754121;82;21126;-63
2021/04/29 00:48:10;;;;;;;7.10;4.60;;;;;;;8.97;79.05;95237.62;1754345;82;21140;-62
2021/04/29 00:50:38;;;;;;;6.07;4.07;;;;;;;8.96;79.06;95237.63;1754211;82;21592;-62
2021/04/29 00:53:05;;;;;;;6.47;4.30;;;;;;;8.95;79.12;95238.09;1754049;81;21126;-63
2021/04/29 00:55:34;;;;;;;6.97;3.70;;;;;;;8.88;79.94;95232.51;1754260;82;21632;-63
2021/04/29 00:58:03;;;;;;;5.77;3.73;;;;;;;8.79;79.58;95232.20;1754061;81;21144;-64
2021/04/29 01:00:31;;;;;;;4.73;3.50;;;;;;;8.76;79.79;95240.61;1740158;82;21584;-63
2021/04/29 01:03:10;;;;;;;5.67;4.13;;;;;;;8.70;80.31;95233.70;1740198;82;21126;-62
2021/04/29 01:05:44;;;;;;;5.33;3.33;;;;;;;8.60;80.67;95240.02;1740273;81;21126;-63
2021/04/29 01:08:22;;;;;;;5.33;3.30;;;;;;;8.55;80.34;95245.34;1719133;82;21115;-62
2021/04/29 01:11:04;;;;;;;5.47;3.70;;;;;;;8.57;80.30;95246.19;1740229;82;21671;-62
2021/04/29 01:13:33;;;;;;;5.17;3.57;;;;;;;8.43;80.44;95249.02;1719306;82;21130;-62
2021/04/29 01:16:02;;;;;;;5.60;3.57;;;;;;;8.40;80.67;95254.34;1740317;82;21169;-63
2021/04/29 01:18:31;;;;;;;4.93;3.83;;;;;;;8.39;80.57;95252.61;1740400;82;21165;-62
2021/04/29 01:21:07;;;;;;;8.20;4.27;;;;;;;8.33;80.31;95250.03;1739890;82;21734;-62
2021/04/29 01:24:11;;;;;;;5.93;3.93;;;;;;;8.24;80.45;95249.73;1740137;81;21289;-63
2021/04/29 01:27:01;;;;;;;8.23;4.47;;;;;;;8.24;81.21;95255.45;1740058;82;21280;-63
2021/04/29 01:29:32;;;;;;;5.03;3.83;;;;;;;8.22;80.84;95251.52;1740396;82;21276;-62
2021/04/29 01:32:01;;;;;;;7.00;4.50;;;;;;;8.27;81.24;95248.82;1740149;82;21691;-63
2021/04/29 01:34:37;;;;;;;7.17;4.70;;;;;;;8.27;81.46;95253.22;1740092;82;21272;-62
2021/04/29 01:37:08;;;;;;;4.37;3.23;;;;;;;8.34;81.61;95251.78;1740330;82;21521;-62
2021/04/29 01:39:37;;;;;;;6.10;3.30;;;;;;;8.36;80.96;95253.05;1719438;82;21125;-63
2021/04/29 01:42:07;;;;;;;12.83;5.57;;;;;;;8.37;80.63;95250.88;1739957;82;21296;-63
2021/04/29 01:44:37;;;;;;;7.17;4.23;;;;;;;8.41;80.72;95252.12;1740314;82;21549;-63
2021/04/29 01:47:06;;;;;;;17.60;8.60;;;;;;;8.55;80.80;95252.37;1740269;82;21292;-63
2021/04/29 01:49:34;;;;;;;10.77;5.27;;;;;;;8.61;80.69;95249.17;1740221;82;21157;-63
2021/04/29 01:52:02;;;;;;;4.33;3.67;;;;;;;8.57;80.43;95255.84;1740361;82;21287;-63
2021/04/29 01:54:30;;;;;;;4.93;3.63;;;;;;;8.54;80.01;95258.08;1740114;82;21280;-63
2021/04/29 01:56:58;;;;;;;11.47;4.50;;;;;;;8.54;79.83;95249.30;1740175;82;21129;-62
2021/04/29 01:59:26;;;;;;;7.10;3.70;;;;;;;8.52;80.11;95254.59;1740308;81;21307;-62
2021/04/29 02:01:53;;;;;;;4.90;3.40;;;;;;;8.51;80.05;95250.22;1740271;81;21170;-63
2021/04/29 02:04:21;;;;;;;7.13;3.50;;;;;;;8.43;80.42;95246.84;1740046;82;21715;-64
2021/04/29 02:06:49;;;;;;;5.27;3.70;;;;;;;8.33;80.79;95243.45;1740086;82;21288;-63
2021/04/29 02:09:17;;;;;;;8.07;3.43;;;;;;;8.28;81.65;95237.41;1740292;82;21130;-62
2021/04/29 02:11:59;;;;;;;6.97;4.37;;;;;;;8.34;81.66;95239.95;1740258;82;21280;-63
2021/04/29 02:14:47;;;;;;;8.10;4.93;;;;;;;8.34;81.95;95245.21;1740089;82;21276;-63
2021/04/29 02:17:43;;;;;;;7.70;4.47;;;;;;;8.36;82.01;95238.59;1740192;82;21674;-63
2021/04/29 02:20:13;;;;;;;7.87;5.77;;;;;;;8.34;82.67;95235.12;1740008;81;21252;-63
2021/04/29 02:22:43;;;;;;;10.47;6.83;;;;;;;8.31;82.52;95239.98;1739966;82;21149;-64
2021/04/29 02:25:14;;;;;;;13.47;9.50;;;;;;;8.33;81.76;95237.34;1740379;81;21272;-63
2021/04/29 02:27:42;;;;;;;7.43;4.60;;;;;;;8.34;81.37;95239.95;1740299;82;21134;-62
2021/04/29 02:30:14;;;;;;;17.03;9.80;;;;;;;8.28;81.88;95237.86;1740268;82;21287;-63
2021/04/29 02:32:43;;;;;;;17.27;10.58;;;;;;;8.22;81.58;95233.57;1740220;82;21119;-62
2021/04/29 02:35:16;;;;;;;15.47;10.37;;;;;;;8.24;82.33;95234.42;1740150;82;21138;-63
2021/04/29 02:37:49;;;;;;;17.30;11.33;;;;;;;8.26;82.68;95239.18;1740179;82;21687;-63
2021/04/29 02:40:18;;;;;;;;;;;;;;;8.25;82.76;95234.83;1742658;82;21268;-63
2021/04/29 02:42:48;;;;;;;14.40;8.13;;;;;;;8.30;82.19;95237.39;1737228;82;20145;-63
2021/04/29 02:45:17;;;;;;;15.47;9.23;;;;;;;8.33;82.61;95244.77;1740169;82;21545;-63
2021/04/29 02:47:48;;;;;;;15.30;8.63;;;;;;;8.38;82.18;95239.00;1740054;82;21279;-63
2021/04/29 02:50:20;;;;;;;19.30;11.03;;;;;;;8.47;82.09;95240.66;1739975;82;21098;-63
2021/04/29 02:52:53;;;;;;;16.53;9.27;;;;;;;8.47;81.62;95240.66;1740006;82;21146;-62
2021/04/29 02:55:23;;;;;;;11.78;7.08;;;;;;;8.48;81.59;95241.52;1740220;82;21260;-63
2021/04/29 02:58:05;;;;;;;12.37;6.70;;;;;;;8.49;81.72;95245.87;1739948;82;21086;-62
2021/04/29 03:00:34;;;;;;;14.77;8.23;;;;;;;8.52;81.63;95247.16;1751053;81;21202;-62
2021/04/29 03:03:05;;;;;;;18.40;10.07;;;;;;;8.47;81.88;95248.55;1754219;82;21157;-62
2021/04/29 03:05:33;;;;;;;34.27;16.10;;;;;;;8.42;82.44;95246.44;1753820;82;21590;-63
2021/04/29 03:08:01;;;;;;;20.10;11.20;;;;;;;8.47;82.72;95255.13;1754354;82;21109;-62
2021/04/29 03:10:28;;;;;;;20.93;12.40;;;;;;;8.58;82.54;95257.57;1754261;82;21532;-62
2021/04/29 03:12:57;;;;;;;21.83;12.03;;;;;;;8.63;82.17;95263.62;1754080;82;21106;-63
2021/04/29 03:15:26;;;;;;;30.83;14.50;;;;;;;8.70;81.89;95269.21;1754029;82;21165;-63
2021/04/29 03:17:54;;;;;;;23.37;13.23;;;;;;;8.76;81.79;95268.23;1754256;82;21164;-63
2021/04/29 03:20:24;;;;;;;31.20;14.80;;;;;;;8.82;81.67;95268.11;1751170;82;21122;-63
2021/04/29 03:22:51;;;;;;;20.20;11.10;;;;;;;8.92;81.48;95268.41;1754305;82;21137;-62
2021/04/29 03:25:19;;;;;;;19.33;11.20;;;;;;;8.95;81.11;95270.12;1754123;82;21156;-62
2021/04/29 03:27:46;;;;;;;17.33;10.30;;;;;;;8.96;80.96;95272.70;1753959;82;21588;-63
2021/04/29 03:30:16;;;;;;;15.20;9.20;;;;;;;8.86;80.58;95273.30;1754326;82;21137;-62
2021/04/29 03:32:46;;;;;;;13.27;7.93;;;;;;;8.81;80.74;95271.65;1754069;82;21577;-63
2021/04/29 03:35:14;;;;;;;13.60;8.50;;;;;;;8.69;80.67;95283.69;1753902;81;21150;-63
2021/04/29 03:37:42;;;;;;;13.23;7.40;;;;;;;8.53;80.93;95279.12;1754057;81;21595;-63
2021/04/29 03:40:12;;;;;;;12.97;6.67;;;;;;;8.58;81.14;95283.41;1754392;81;21272;-63
2021/04/29 03:42:39;;;;;;;11.33;7.17;;;;;;;8.62;81.16;95282.94;1754365;82;21169;-62
2021/04/29 03:45:09;;;;;;;15.13;7.73;;;;;;;8.58;81.52;95287.36;1754247;82;21146;-62
2021/04/29 03:47:37;;;;;;;14.07;8.93;;;;;;;8.47;81.68;95284.05;1754084;82;21567;-63
2021/04/29 03:50:06;;;;;;;13.90;6.97;;;;;;;8.39;81.85;95289.42;1754198;82;21587;-63
2021/04/29 03:52:34;;;;;;;11.10;7.13;;;;;;;8.40;82.25;95292.91;1754061;82;21614;-63
2021/04/29 03:55:02;;;;;;;10.23;6.33;;;;;;;8.39;82.37;95295.06;1754250;81;21140;-62
2021/04/29 03:57:30;;;;;;;7.37;6.10;;;;;;;8.37;82.77;95295.56;1754199;82;21156;-62
2021/04/29 03:59:57;;;;;;;11.67;6.37;;;;;;;8.34;82.65;95299.52;1747972;81;21158;-63
2021/04/29 04:02:25;;;;;;;10.53;7.07;;;;;;;8.26;82.48;95295.69;1740226;82;21283;-62
2021/04/29 04:04:52;;;;;;;9.43;6.90;;;;;;;8.28;83.09;95297.00;1740155;82;21288;-62
2021/04/29 04:07:20;;;;;;;15.83;8.73;;;;;;;8.36;82.94;95305.63;1740156;82;21296;-63
2021/04/29 04:09:47;;;;;;;14.23;8.10;;;;;;;8.41;83.04;95303.84;1740019;82;21141;-63
2021/04/29 04:12:15;;;;;;;18.07;9.20;;;;;;;8.41;82.31;95299.89;1740199;82;21328;-62
2021/04/29 04:14:43;;;;;;;22.93;11.00;;;;;;;8.40;82.48;95308.23;1740028;82;21311;-63
2021/04/29 04:17:11;;;;;;;20.90;12.50;;;;;;;8.47;82.68;95317.33;1740374;82;21155;-63
2021/04/29 04:19:38;;;;;;;18.10;12.20;;;;;;;8.54;83.22;95313.72;1740426;82;21125;-63
2021/04/29 04:22:06;;;;;;;21.33;11.17;;;;;;;8.54;83.13;95313.30;1740222;82;21592;-63
2021/04/29 04:24:35;;;;;;;25.10;13.83;;;;;;;8.57;83.09;95316.33;1740201;81;21284;-63
2021/04/29 04:27:02;;;;;;;31.67;15.97;;;;;;;8.63;83.07;95320.17;1740470;82;21149;-63
2021/04/29 04:29:34;;;;;;;23.27;14.30;;;;;;;8.71;83.35;95316.09;1739960;82;21150;-63
2021/04/29 04:32:02;;;;;;;21.50;13.13;;;;;;;8.85;83.12;95320.70;1740150;82;21257;-62
2021/04/29 04:34:30;;;;;;;20.83;13.67;;;;;;;8.93;83.63;95316.17;1740515;82;21137;-62
2021/04/29 04:36:58;;;;;;;33.43;19.53;;;;;;;9.02;83.39;95319.98;1740151;82;21722;-62
2021/04/29 04:39:27;;;;;;;29.97;20.00;;;;;;;9.12;83.08;95316.72;1740359;82;21110;-62
2021/04/29 04:41:54;;;;;;;23.03;15.67;;;;;;;9.18;82.59;95318.39;1740097;82;21280;-62
2021/04/29 04:44:22;;;;;;;24.10;15.30;;;;;;;9.30;82.34;95320.81;1740302;82;21272;-63
2021/04/29 04:46:50;;;;;;;32.77;14.63;;;;;;;9.44;82.19;95313.96;1740166;82;21268;-63
2021/04/29 04:49:17;;;;;;;23.83;14.37;;;;;;;9.62;81.96;95320.64;1740549;82;21126;-62
2021/04/29 04:51:47;;;;;;;25.00;13.20;;;;;;;9.81;81.76;95322.48;1740049;82;21300;-63
2021/04/29 04:54:20;;;;;;;24.33;13.43;;;;;;;9.99;81.34;95316.83;1740331;82;21698;-62
2021/04/29 04:56:49;;;;;;;21.13;14.43;;;;;;;10.10;80.89;95312.19;1740425;82;21130;-62
2021/04/29 04:59:16;;;;;;;22.63;13.37;;;;;;;10.21;80.53;95304.07;1740305;82;21157;-63
2021/04/29 05:01:44;;;;;;;19.17;11.20;;;;;;;10.33;80.39;95303.84;1753798;82;21169;-63
2021/04/29 05:04:12;;;;;;;15.63;11.20;;;;;;;10.48;79.90;95297.77;1754324;82;21101;-63
2021/04/29 05:06:40;;;;;;;16.20;10.23;;;;;;;10.65;79.76;95300.89;1754249;82;21169;-63
2021/04/29 05:09:08;;;;;;;16.40;10.73;;;;;;;10.61;78.40;95299.25;1754218;82;21152;-63
2021/04/29 05:11:36;;;;;;;19.53;12.13;;;;;;;10.57;78.46;95308.13;1754254;82;21164;-62
2021/04/29 05:14:03;;;;;;;16.10;11.87;;;;;;;10.65;78.90;95308.81;1754243;82;21602;-63
2021/04/29 05:16:31;;;;;;;17.97;11.97;;;;;;;10.70;78.66;95309.56;1754140;82;21145;-63
2021/04/29 05:18:59;;;;;;;20.73;13.00;;;;;;;10.75;78.61;95310.78;1754047;82;21149;-62
2021/04/29 05:21:27;;;;;;;20.13;12.33;;;;;;;10.86;78.21;95303.92;1754003;82;21193;-63
2021/04/29 05:23:54;;;;;;;19.77;13.00;;;;;;;10.93;78.17;95316.06;1754504;82;21140;-63
2021/04/29 05:26:22;;;;;;;17.67;12.67;;;;;;;11.01;78.17;95307.50;1754095;82;21584;-63
2021/04/29 05:28:49;;;;;;;17.40;12.03;;;;;;;11.14;78.34;95308.95;1754104;82;21125;-62
2021/04/29 05:31:17;;;;;;;18.87;11.83;;;;;;;11.19;78.07;95303.55;1754326;82;21102;-63
2021/04/29 05:33:45;;;;;;;17.87;12.00;;;;;;;11.23;77.60;95313.97;1726973;82;21124;-63
2021/04/29 05:36:13;;;;;;;22.50;12.27;;;;;;;11.29;77.24;95314.30;1754349;82;21137;-63
2021/04/29 05:38:40;;;;;;;19.40;11.73;;;;;;;11.32;77.40;95313.34;1754428;82;21109;-63
2021/04/29 05:41:08;;;;;;;18.27;12.13;;;;;;;11.33;77.56;95310.65;1754218;82;21547;-62
2021/04/29 05:43:36;;;;;;;17.47;11.67;;;;;;;11.39;77.39;95313.15;1754353;82;21140;-63
2021/04/29 05:46:04;;;;;;;16.47;11.23;;;;;;;11.47;77.02;95309.84;1754123;82;21172;-63
2021/04/29 05:48:33;;;;;;;16.80;11.37;;;;;;;11.54;76.85;95312.30;1754225;82;21140;-63
2021/04/29 05:51:00;;;;;;;15.93;11.30;;;;;;;11.54;76.44;95317.16;1753960;82;21106;-63
2021/04/29 05:53:28;;;;;;;14.97;11.23;;;;;;;11.60;76.07;95314.80;1754314;82;21129;-62
2021/04/29 05:55:55;;;;;;;18.73;10.87;;;;;;;11.60;75.57;95315.66;1754133;82;21129;-63
2021/04/29 05:58:23;;;;;;;16.97;11.63;;;;;;;11.58;75.41;95315.29;1754219;82;21157;-63
2021/04/29 06:00:50;;;;;;;17.17;10.73;;;;;;;11.52;75.38;95316.79;1747188;81;21173;-62
2021/04/29 06:03:21;;;;;;;15.60;10.40;;;;;;;11.46;74.94;95320.44;1740440;82;21158;-62
2021/04/29 06:05:48;;;;;;;16.33;11.27;;;;;;;11.43;75.30;95325.80;1740079;82;21307;-63
2021/04/29 06:08:15;;;;;;;19.50;12.63;;;;;;;11.40;75.50;95325.89;1739985;82;21295;-63
2021/04/29 06:10:43;;;;;;;16.30;10.50;;;;;;;11.41;75.57;95328.48;1740267;81;21280;-63
2021/04/29 06:13:10;;;;;;;20.43;11.70;;;;;;;11.50;75.80;95326.06;1740187;82;21276;-62
2021/04/29 06:15:38;;;;;;;15.07;10.73;;;;;;;11.59;75.68;95326.26;1740322;82;21137;-63
2021/04/29 06:18:05;;;;;;;14.63;10.93;;;;;;;11.66;75.75;95326.05;1740111;82;21138;-63
2021/04/29 06:20:34;;;;;;;18.27;11.07;;;;;;;11.79;75.75;95324.39;1740141;82;21324;-62
2021/04/29 06:23:02;;;;;;;16.43;9.43;;;;;;;11.98;75.57;95320.38;1740069;82;21158;-62
2021/04/29 06:25:30;;;;;;;13.63;9.07;;;;;;;12.19;75.42;95324.62;1740005;82;21307;-63
2021/04/29 06:27:57;;;;;;;11.23;8.37;;;;;;;12.47;74.51;95324.23;1740357;82;21133;-63
2021/04/29 06:30:26;;;;;;;10.30;7.63;;;;;;;12.62;71.41;95323.34;1739977;82;21291;-62
2021/04/29 06:32:54;;;;;;;11.40;7.60;;;;;;;12.77;71.53;95322.86;1719323;82;21145;-62
2021/04/29 06:35:22;;;;;;;9.03;7.40;;;;;;;12.86;71.16;95325.69;1740454;82;21531;-62
2021/04/29 06:37:50;;;;;;;11.33;7.30;;;;;;;12.92;71.02;95323.69;1740235;82;21162;-63
2021/04/29 06:40:18;;;;;;;10.50;7.43;;;;;;;13.04;70.77;95327.73;1740076;82;21575;-62
2021/04/29 06:42:46;;;;;;;12.03;7.37;;;;;;;13.17;70.81;95330.84;1740077;82;21289;-63
2021/04/29 06:45:14;;;;;;;13.03;7.90;;;;;;;13.31;70.63;95325.14;1740066;82;21301;-62
2021/04/29 06:47:42;;;;;;;11.37;8.13;;;;;;;13.48;69.97;95328.09;1740245;82;21284;-63
2021/04/29 06:50:11;;;;;;;11.17;8.93;;;;;;;13.65;69.57;95330.14;1740070;82;21130;-63
2021/04/29 06:52:38;;;;;;;11.10;7.83;;;;;;;13.84;69.45;95326.39;1740169;81;21702;-62
2021/04/29 06:55:07;;;;;;;11.23;8.00;;;;;;;13.94;67.74;95330.45;1740050;82;21280;-63
2021/04/29 06:57:35;;;;;;;10.03;6.70;;;;;;;14.02;68.55;95334.14;1740253;81;22258;-63
2021/04/29 07:00:04;;;;;;;10.20;7.23;;;;;;;14.04;67.95;95332.31;1740666;81;21134;-63
2021/04/29 07:02:32;;;;;;;8.83;7.10;;;;;;;13.89;66.54;95330.22;1748518;82;21563;-62
2021/04/29 07:05:03;;;;;;;11.80;7.53;;;;;;;13.92;67.39;95330.09;1747985;82;21142;-63
2021/04/29 07:07:30;;;;;;;11.30;7.77;;;;;;;13.89;66.51;95331.07;1748199;82;21580;-63
2021/04/29 07:09:58;;;;;;;13.60;7.17;;;;;;;13.98;67.05;95329.86;1748221;82;21135;-62
2021/04/29 07:12:25;;;;;;;9.53;6.77;;;;;;;14.11;66.14;95335.58;1719427;82;21137;-63
2021/04/29 07:14:53;;;;;;;10.30;7.33;;;;;;;14.23;66.67;95325.38;1748214;82;21123;-62
2021/04/29 07:17:20;;;;;;;12.57;8.83;;;;;;;14.35;66.53;95330.70;1748510;82;21149;-63
2021/04/29 07:19:48;;;;;;;12.23;7.70;;;;;;;14.57;65.81;95332.12;1719104;82;21197;-63
2021/04/29 07:22:17;;;;;;;7.67;6.50;;;;;;;14.79;65.73;95331.27;1748270;82;21114;-62
2021/04/29 07:24:44;;;;;;;9.17;6.77;;;;;;;14.93;63.89;95328.95;1748139;82;21185;-62
2021/04/29 07:27:12;;;;;;;8.87;7.07;;;;;;;15.10;64.25;95330.94;1748352;82;21105;-62
2021/04/29 07:29:40;;;;;;;9.57;6.83;;;;;;;15.26;63.52;95327.18;1748439;82;21154;-63
2021/04/29 07:32:09;;;;;;;10.87;6.80;;;;;;;15.24;63.27;95331.69;1748332;82;21157;-63
2021/04/29 07:34:38;;;;;;;9.67;6.83;;;;;;;15.09;62.65;95327.86;1748505;82;21150;-63
2021/04/29 07:37:05;;;;;;;12.00;6.37;;;;;;;15.02;62.54;95328.59;1748103;81;21113;-63
2021/04/29 07:39:35;;;;;;;11.00;8.27;;;;;;;14.82;61.95;95328.05;1748413;82;21160;-63
2021/04/29 07:42:03;;;;;;;7.03;5.33;;;;;;;14.74;62.34;95336.80;1748373;82;21154;-63
2021/04/29 07:44:31;;;;;;;10.00;7.60;;;;;;;14.59;63.16;95342.23;1748347;82;21595;-63
2021/04/29 07:47:00;;;;;;;9.33;7.30;;;;;;;14.49;63.31;95334.18;1748186;82;21161;-63
2021/04/29 07:49:29;;;;;;;8.93;7.17;;;;;;;14.44;63.62;95333.02;1748635;82;21138;-63
2021/04/29 07:51:57;;;;;;;11.07;7.90;;;;;;;14.43;63.50;95335.72;1748365;82;21177;-62
2021/04/29 07:54:25;;;;;;;12.13;7.40;;;;;;;14.43;63.88;95335.72;1748272;82;21102;-63
2021/04/29 07:56:53;;;;;;;8.27;6.60;;;;;;;14.47;63.87;95336.88;1748541;82;21148;-63
2021/04/29 07:59:20;;;;;;;10.03;6.53;;;;;;;14.58;64.23;95332.98;1748437;82;21146;-63
2021/04/29 08:01:48;;;;;;;9.63;6.80;;;;;;;14.66;63.46;95326.44;1752217;82;21149;-63
2021/04/29 08:04:16;;;;;;;9.07;7.27;;;;;;;14.77;63.40;95334.02;1727021;82;21125;-63
2021/04/29 08:06:44;;;;;;;8.70;6.43;;;;;;;14.84;61.98;95326.20;1754202;81;21555;-63
2021/04/29 08:09:11;;;;;;;9.97;7.07;;;;;;;14.80;62.39;95325.06;1754198;82;21188;-63
2021/04/29 08:11:39;;;;;;;14.83;8.90;;;;;;;14.85;62.65;95328.39;1754210;82;21110;-63
2021/04/29 08:14:06;;;;;;;13.47;9.07;;;;;;;14.96;62.04;95322.17;1754313;81;21145;-63
2021/04/29 08:16:35;;;;;;;8.77;5.23;;;;;;;15.09;62.16;95319.89;1754297;81;21154;-63
2021/04/29 08:19:03;;;;;;;9.53;5.73;;;;;;;15.25;62.32;95318.34;1754285;82;21567;-62
2021/04/29 08:21:33;;;;;;;6.20;5.23;;;;;;;15.36;61.08;95310.78;1751920;82;21113;-63
2021/04/29 08:24:01;;;;;;;7.87;5.57;;;;;;;15.36;60.21;95322.73;1754138;82;21161;-63
2021/04/29 08:26:29;;;;;;;7.57;5.27;;;;;;;15.29;60.32;95322.59;1754269;82;21113;-63
2021/04/29 08:28:56;;;;;;;6.73;5.47;;;;;;;15.28;59.59;95325.33;1754192;82;21576;-63
2021/04/29 08:31:24;;;;;;;7.13;4.83;;;;;;;15.31;60.18;95324.73;1754260;82;21176;-63
2021/04/29 08:33:53;;;;;;;7.80;5.07;;;;;;;15.19;58.67;95315.92;1754174;82;21157;-62
2021/04/29 08:36:21;;;;;;;7.47;4.30;;;;;;;15.21;59.08;95318.06;1754289;82;21137;-63
2021/04/29 08:38:49;;;;;;;6.57;4.97;;;;;;;15.17;57.21;95316.92;1754335;82;21102;-63
2021/04/29 08:41:18;;;;;;;7.33;5.00;;;;;;;15.26;59.18;95324.52;1753886;82;21158;-63
2021/04/29 08:43:46;;;;;;;6.00;4.43;;;;;;;15.31;58.57;95319.88;1754379;81;21145;-63
2021/04/29 08:46:15;;;;;;;8.10;4.83;;;;;;;15.36;58.79;95317.42;1754350;82;21155;-63
2021/04/29 08:48:43;;;;;;;6.57;4.43;;;;;;;15.44;58.67;95314.44;1754270;82;21125;-63
2021/04/29 08:51:11;;;;;;;10.07;4.37;;;;;;;15.43;58.83;95312.72;1754267;82;21153;-63
2021/04/29 08:53:39;;;;;;;6.97;4.20;;;;;;;15.47;59.31;95302.81;1754339;82;21164;-63
2021/04/29 08:56:07;;;;;;;6.33;4.40;;;;;;;15.49;59.00;95300.96;1754106;81;21148;-63
2021/04/29 08:58:34;;;;;;;6.62;4.08;;;;;;;15.68;59.15;95297.92;1754147;82;21149;-62
2021/04/29 09:01:05;;;;;;;5.00;4.12;;;;;;;15.97;59.20;95295.33;1751009;81;21189;-63
2021/04/29 09:03:34;;;;;;;5.90;4.17;;;;;;;16.30;58.21;95277.91;1740044;82;21276;-63
2021/04/29 09:06:04;;;;;;;5.45;4.00;;;;;;;16.68;58.53;95282.77;1740138;82;21114;-63
2021/04/29 09:08:35;;;;;;;4.47;3.55;;;;;;;17.00;59.20;95275.06;1740021;82;21284;-63
2021/04/29 09:11:17;;;;;;;4.47;3.67;;;;;;;17.20;55.80;95274.94;1740339;82;21537;-62
2021/04/29 09:14:05;;;;;;;5.92;3.87;;;;;;;17.36;55.23;95266.17;1740156;81;21264;-63
2021/04/29 09:16:45;;;;;;;5.80;3.45;;;;;;;17.52;54.19;95269.33;1740452;82;21130;-63
2021/04/29 09:19:20;;;;;;;7.80;3.65;;;;;;;17.78;54.16;95260.92;1740381;82;21280;-62
2021/04/29 09:21:49;;;;;;;5.05;3.30;;;;;;;18.00;54.42;95256.22;1740411;82;21111;-63
2021/04/29 09:24:17;;;;;;;3.92;3.20;;;;;;;18.13;53.40;95254.61;1740125;82;21674;-63
2021/04/29 09:26:45;;;;;;;5.87;3.33;;;;;;;18.43;51.81;95248.55;1740402;82;21153;-63
2021/04/29 09:29:15;;;;;;;4.35;3.12;;;;;;;18.65;52.23;95253.58;1740592;82;21133;-63
2021/04/29 09:31:47;;;;;;;4.50;3.50;;;;;;;18.75;51.32;95248.14;1740239;82;21671;-63
2021/04/29 09:34:18;;;;;;;4.17;3.15;;;;;;;18.91;51.45;95254.80;1740452;82;21260;-63
2021/04/29 09:36:45;;;;;;;4.92;3.40;;;;;;;19.05;50.10;95250.47;1740160;82;21292;-63
2021/04/29 09:39:17;;;;;;;4.28;2.90;;;;;;;19.21;50.40;95251.33;1740008;82;21759;-63
2021/04/29 09:41:49;;;;;;;3.80;3.30;;;;;;;19.36;50.06;95249.09;1740405;82;21304;-63
2021/04/29 09:44:23;;;;;;;5.08;3.80;;;;;;;19.53;49.81;95232.05;1740472;82;21277;-63
2021/04/29 09:47:03;;;;;;;6.55;3.58;;;;;;;19.69;47.49;95228.00;1740270;81;21125;-63
2021/04/29 09:49:35;;;;;;;4.40;3.15;;;;;;;19.89;47.82;95229.47;1740393;82;21272;-63
2021/04/29 09:52:24;;;;;;;6.25;3.40;;;;;;;19.86;47.03;95221.16;1740050;82;21262;-63
2021/04/29 09:54:54;;;;;;;4.30;3.55;;;;;;;20.07;50.02;95220.30;1740268;82;21147;-63
2021/04/29 09:57:26;;;;;;;6.17;3.10;;;;;;;20.42;48.50;95219.91;1740301;82;21138;-63
2021/04/29 10:00:01;;;;;;;3.62;2.65;;;;;;;20.62;45.42;95214.66;1740409;82;21317;-63
2021/04/29 10:02:27;;;;;;;5.25;2.80;;;;;;;20.32;44.32;95215.61;1748737;81;21149;-63
2021/04/29 10:04:55;;;;;;;4.53;3.00;;;;;;;20.31;45.81;95216.58;1754117;82;21150;-63
2021/04/29 10:07:23;;;;;;;4.90;2.50;;;;;;;20.42;42.75;95213.21;1754099;82;21133;-63
2021/04/29 10:09:52;;;;;;;4.12;2.55;;;;;;;20.71;45.74;95211.84;1754074;82;21141;-63
2021/04/29 10:12:24;;;;;;;4.37;2.50;;;;;;;21.09;42.99;95209.36;1754380;81;21148;-63
2021/04/29 10:14:54;;;;;;;4.15;2.85;;;;;;;21.37;41.70;95202.16;1754144;82;21165;-63
2021/04/29 10:17:23;;;;;;;3.90;2.85;;;;;;;20.98;41.99;95208.34;1754144;82;21156;-63
2021/04/29 10:19:53;;;;;;;2.58;2.37;;;;;;;20.64;43.41;95203.84;1753994;82;21105;-64
2021/04/29 10:22:24;;;;;;;4.95;2.83;;;;;;;20.29;43.83;95200.22;1754383;81;21152;-63
2021/04/29 10:24:52;;;;;;;4.67;2.87;;;;;;;19.95;43.82;95210.34;1754342;81;21141;-63
2021/04/29 10:27:30;;;;;;;5.12;2.87;;;;;;;19.53;43.82;95206.63;1754396;81;21134;-63
2021/04/29 10:30:12;;;;;;;3.87;2.77;;;;;;;19.30;45.13;95210.64;1754284;82;21094;-63
2021/04/29 10:32:40;;;;;;;3.80;2.77;;;;;;;19.38;46.58;95205.73;1754109;81;21138;-63
2021/04/29 10:35:20;;;;;;;4.42;2.58;;;;;;;19.61;46.01;95196.31;1754303;82;21145;-63
2021/04/29 10:37:58;;;;;;;2.92;2.60;;;;;;;19.93;46.90;95193.98;1752887;82;21145;-63
2021/04/29 10:40:39;;;;;;;4.95;3.00;;;;;;;20.52;44.28;95199.61;1754158;82;21536;-63
2021/04/29 10:43:10;;;;;;;2.95;2.47;;;;;;;21.50;42.73;95181.59;1753298;82;21117;-63
2021/04/29 10:45:38;;;;;;;4.65;3.12;;;;;;;21.50;42.73;95181.59;1754183;82;21571;-63
2021/04/29 10:48:09;;;;;;;4.30;2.42;;;;;;;21.93;43.32;95180.45;1754055;81;21571;-63
2021/04/29 10:50:47;;;;;;;3.00;2.67;;;;;;;22.42;40.19;95176.49;1754282;82;21522;-63
2021/04/29 10:53:30;;;;;;;4.15;2.42;;;;;;;22.15;39.63;95163.66;1754171;82;21133;-63
2021/04/29 10:56:10;;;;;;;4.25;2.55;;;;;;;21.88;40.62;95179.42;1753923;82;21117;-63
2021/04/29 10:58:39;;;;;;;4.22;2.42;;;;;;;21.60;40.11;95176.45;1754116;82;21154;-63
2021/04/29 11:01:21;;;;;;;4.95;2.90;;;;;;;21.25;40.18;95182.85;1754145;82;21138;-63
2021/04/29 11:03:51;;;;;;;4.55;3.00;;;;;;;21.20;40.94;95179.13;1754259;82;21153;-63
2021/04/29 11:06:30;;;;;;;4.30;2.62;;;;;;;20.93;40.81;95177.31;1754115;82;21098;-63
2021/04/29 11:08:58;;;;;;;3.67;2.65;;;;;;;20.66;41.25;95181.34;1754187;82;21129;-64
2021/04/29 11:11:38;;;;;;;3.77;2.83;;;;;;;20.33;42.22;95184.31;1754478;82;21165;-63
2021/04/29 11:14:16;;;;;;;3.25;2.50;;;;;;;20.18;42.92;95189.30;1754107;81;21126;-63
2021/04/29 11:16:55;;;;;;;6.40;2.52;;;;;;;19.96;43.64;95170.58;1740572;82;21135;-63
2021/04/29 11:19:49;;;;;;;2.52;2.02;;;;;;;19.82;42.85;95175.43;1754284;82;21127;-63
2021/04/29 11:22:33;;;;;;;3.45;2.70;;;;;;;19.82;42.85;95175.43;1754031;82;21594;-63
2021/04/29 11:25:03;;;;;;;5.83;2.90;;;;;;;19.70;41.56;95173.98;1754442;82;21272;-63
2021/04/29 11:27:35;;;;;;;5.28;2.70;;;;;;;19.54;42.91;95178.05;1754230;81;21115;-63
2021/04/29 11:30:12;;;;;;;5.17;2.55;;;;;;;19.51;43.29;95179.58;1754184;81;21142;-64
2021/04/29 11:32:53;;;;;;;5.10;2.85;;;;;;;19.40;42.57;95185.10;1754312;82;21563;-63
2021/04/29 11:35:28;;;;;;;5.75;3.02;;;;;;;19.18;43.03;95188.66;1754439;82;21152;-63
2021/04/29 11:37:57;;;;;;;11.30;6.55;;;;;;;18.94;43.66;95201.16;1754277;81;21137;-63
2021/04/29 11:40:28;;;;;;;3.77;3.02;;;;;;;18.67;44.24;95195.57;1741413;82;21153;-63
2021/04/29 11:43:00;;;;;;;7.07;2.97;;;;;;;18.46;46.45;95198.09;1754755;81;21149;-63
2021/04/29 11:45:33;;;;;;;4.95;3.65;;;;;;;18.35;45.66;95198.70;1754434;82;21686;-63